Terminal Aerodrome Forecast
Issued by NWS Twin Cities, MN

Home | Current Version | Previous Version | Graphics & Text | Print | Product List | Glossary On
Versions: 1 2 3 4 5 6 7 8 9 10 11 12 13 14
000
FTUS43 KMPX 211738
TAFSTC
TAF
KSTC 211738Z 2118/2218 29012KT 4SM BR OVC010
     FM212100 29013KT P6SM VCSH OVC015
     FM220200 28008KT P6SM VCSH OVC020
     FM220600 26006KT P6SM BKN025
     FM220800 26006KT P6SM BKN035
     FM221400 29006KT P6SM BKN100=

USA.gov is the U.S. government's official web portal to all federal, state and local government web resources and services.